createdAt,value
2023-10-14T00:01:32.010Z,2.40
2023-10-14T00:03:59.116Z,2.60
2023-10-14T00:06:26.407Z,2.40
2023-10-14T00:08:58.778Z,2.37
2023-10-14T00:11:53.607Z,2.40
2023-10-14T00:14:20.348Z,2.67
2023-10-14T00:16:50.864Z,2.57
2023-10-14T00:19:23.445Z,2.33
2023-10-14T00:21:51.731Z,2.73
2023-10-14T00:24:29.690Z,2.20
2023-10-14T00:27:05.349Z,2.60
2023-10-14T00:29:32.140Z,2.17
2023-10-14T00:32:04.563Z,2.20
2023-10-14T00:34:31.518Z,2.10
2023-10-14T00:36:58.485Z,2.13
2023-10-14T00:39:29.429Z,2.40
2023-10-14T00:41:59.232Z,2.13
2023-10-14T00:44:26.672Z,2.20
2023-10-14T00:46:55.724Z,1.97
2023-10-14T00:49:34.288Z,1.90
2023-10-14T00:52:20.389Z,1.90
2023-10-14T00:54:54.530Z,2.03
2023-10-14T00:57:21.551Z,1.83
2023-10-14T00:59:56.189Z,2.20
2023-10-14T01:02:32.548Z,2.10
2023-10-14T01:05:11.997Z,2.03
2023-10-14T01:07:40.317Z,2.30
2023-10-14T01:10:11.662Z,2.30
2023-10-14T01:12:54.765Z,2.30
2023-10-14T01:15:23.103Z,2.23
2023-10-14T01:17:53.898Z,2.10
2023-10-14T01:20:21.968Z,2.37
2023-10-14T01:22:58.430Z,2.57
2023-10-14T01:25:33.247Z,2.60
2023-10-14T01:28:01.222Z,2.03
2023-10-14T01:30:33.873Z,2.23
2023-10-14T01:33:29.786Z,2.53
2023-10-14T01:36:00.140Z,2.70
2023-10-14T01:38:28.314Z,2.37
2023-10-14T01:40:55.059Z,2.37
2023-10-14T01:43:31.274Z,2.37
2023-10-14T01:45:58.588Z,2.13
2023-10-14T01:48:32.457Z,2.70
2023-10-14T01:50:59.718Z,2.20
2023-10-14T01:53:32.810Z,2.33
2023-10-14T01:56:02.608Z,2.40
2023-10-14T01:58:34.071Z,3.43
2023-10-14T02:01:08.526Z,2.73
2023-10-14T02:03:43.334Z,2.80
2023-10-14T02:06:18.572Z,2.60
2023-10-14T02:08:53.478Z,2.77
2023-10-14T02:11:22.225Z,2.40
2023-10-14T02:13:53.310Z,2.33
2023-10-14T02:16:31.676Z,2.67
2023-10-14T02:19:17.786Z,3.07
2023-10-14T02:21:45.665Z,2.50
2023-10-14T02:24:12.522Z,2.70
2023-10-14T02:26:42.076Z,2.80
2023-10-14T02:29:12.424Z,2.60
2023-10-14T02:31:39.475Z,2.87
2023-10-14T02:34:09.752Z,2.90
2023-10-14T02:36:51.689Z,2.80
2023-10-14T02:39:28.361Z,3.00
2023-10-14T02:42:08.600Z,2.50
2023-10-14T02:44:53.960Z,3.10
2023-10-14T02:47:21.197Z,3.30
2023-10-14T02:49:55.288Z,2.93
2023-10-14T02:52:29.994Z,3.27
2023-10-14T02:55:17.393Z,3.23
2023-10-14T02:57:47.124Z,3.00
2023-10-14T03:00:33.908Z,3.20
2023-10-14T03:03:04.251Z,3.20
2023-10-14T03:05:37.371Z,3.17
2023-10-14T03:08:11.420Z,3.17
2023-10-14T03:10:41.723Z,3.10
2023-10-14T03:13:13.180Z,2.93
2023-10-14T03:15:45.804Z,3.27
2023-10-14T03:18:17.471Z,3.50
2023-10-14T03:20:53.753Z,3.67
2023-10-14T03:23:20.834Z,2.70
2023-10-14T03:25:51.356Z,3.07
2023-10-14T03:28:25.566Z,4.40
2023-10-14T03:30:59.462Z,3.63
2023-10-14T03:33:31.064Z,3.33
2023-10-14T03:36:06.220Z,4.27
2023-10-14T03:38:37.835Z,3.40
2023-10-14T03:41:06.710Z,4.00
2023-10-14T03:44:04.081Z,3.30
2023-10-14T03:46:36.668Z,3.90
2023-10-14T03:49:13.793Z,3.80
2023-10-14T03:51:41.642Z,4.10
2023-10-14T03:54:13.384Z,4.03
2023-10-14T03:56:51.733Z,4.30
2023-10-14T03:59:24.891Z,4.00
2023-10-14T04:02:00.406Z,4.33
2023-10-14T04:04:29.131Z,4.20
2023-10-14T04:07:01.073Z,3.63
2023-10-14T04:09:44.340Z,4.20
2023-10-14T04:12:23.300Z,5.07
2023-10-14T04:14:55.403Z,4.47
2023-10-14T04:17:24.097Z,3.97
2023-10-14T04:20:14.101Z,5.40
2023-10-14T04:22:41.099Z,4.60
2023-10-14T04:25:13.826Z,4.47
2023-10-14T04:27:51.576Z,4.23
2023-10-14T04:30:33.758Z,3.60
2023-10-14T04:33:01.897Z,4.33
2023-10-14T04:35:33.540Z,4.00
2023-10-14T04:38:15.121Z,4.63
2023-10-14T04:40:46.659Z,4.70
2023-10-14T04:43:19.738Z,4.60
2023-10-14T04:45:53.997Z,4.97
2023-10-14T04:48:29.300Z,4.70
2023-10-14T04:50:58.913Z,4.40
2023-10-14T04:53:27.783Z,4.80
2023-10-14T04:55:57.900Z,4.70
2023-10-14T04:58:26.737Z,4.23
2023-10-14T05:00:57.316Z,4.13
2023-10-14T05:03:24.463Z,4.40
2023-10-14T05:05:58.840Z,4.43
2023-10-14T05:08:44.850Z,4.17
2023-10-14T05:11:16.610Z,5.47
2023-10-14T05:14:08.512Z,4.53
2023-10-14T05:16:58.515Z,4.80
2023-10-14T05:19:30.638Z,4.20
2023-10-14T05:22:12.110Z,4.50
2023-10-14T05:24:46.653Z,4.47
2023-10-14T05:27:13.509Z,4.33
2023-10-14T05:29:40.323Z,4.20
2023-10-14T05:32:16.334Z,4.13
2023-10-14T05:34:44.375Z,4.90
2023-10-14T05:37:12.928Z,4.63
2023-10-14T05:39:41.641Z,4.63
2023-10-14T05:42:22.341Z,3.93
2023-10-14T05:44:58.542Z,5.23
2023-10-14T05:47:29.504Z,5.13
2023-10-14T05:49:56.530Z,3.90
2023-10-14T05:52:25.365Z,3.30
2023-10-14T05:54:52.706Z,3.83
2023-10-14T05:57:21.112Z,4.20
2023-10-14T05:59:49.856Z,3.97
2023-10-14T06:02:16.843Z,3.50
2023-10-14T06:04:43.883Z,3.20
2023-10-14T06:07:13.286Z,3.97
2023-10-14T06:09:41.539Z,3.57
2023-10-14T06:12:13.748Z,3.20
2023-10-14T06:14:45.323Z,3.20
2023-10-14T06:17:16.005Z,3.00
2023-10-14T06:19:44.410Z,3.20
2023-10-14T06:22:14.671Z,3.13
2023-10-14T06:24:42.994Z,2.87
2023-10-14T06:27:10.161Z,3.30
2023-10-14T06:29:38.491Z,3.37
2023-10-14T06:32:18.671Z,3.13
2023-10-14T06:34:50.461Z,2.70
2023-10-14T06:37:17.444Z,2.70
2023-10-14T06:39:44.312Z,3.37
2023-10-14T06:42:13.338Z,2.67
2023-10-14T06:44:46.496Z,2.40
2023-10-14T06:47:13.528Z,2.10
2023-10-14T06:49:42.885Z,2.43
2023-10-14T06:52:13.145Z,2.10
2023-10-14T06:54:42.274Z,2.63
2023-10-14T06:57:09.456Z,2.00
2023-10-14T06:59:39.759Z,2.67
2023-10-14T07:02:07.655Z,2.00
2023-10-14T07:04:38.988Z,1.70
2023-10-14T07:07:10.159Z,2.30
2023-10-14T07:09:38.683Z,3.00
2023-10-14T07:12:14.384Z,2.20
2023-10-14T07:14:42.224Z,2.17
2023-10-14T07:17:09.177Z,1.97
2023-10-14T07:19:36.764Z,1.67
2023-10-14T07:22:09.163Z,1.97
2023-10-14T07:24:36.875Z,1.90
2023-10-14T07:27:04.906Z,1.83
2023-10-14T07:29:31.721Z,2.00
2023-10-14T07:31:58.887Z,1.80
2023-10-14T07:34:25.795Z,1.90
2023-10-14T07:36:54.825Z,1.77
2023-10-14T07:39:30.634Z,2.20
2023-10-14T07:41:57.638Z,2.07
2023-10-14T07:44:24.636Z,1.93
2023-10-14T07:46:52.424Z,1.57
2023-10-14T07:49:20.624Z,2.20
2023-10-14T07:51:48.144Z,1.70
2023-10-14T07:54:14.995Z,2.00
2023-10-14T07:56:47.316Z,1.57
2023-10-14T07:59:15.326Z,1.60
2023-10-14T08:01:42.372Z,1.60
2023-10-14T08:04:15.409Z,1.73
2023-10-14T08:06:44.578Z,1.53
2023-10-14T08:09:26.688Z,1.80
2023-10-14T08:11:54.125Z,1.70
2023-10-14T08:14:20.922Z,1.60
2023-10-14T08:16:48.486Z,1.60
2023-10-14T08:19:20.273Z,1.57
2023-10-14T08:21:51.527Z,1.60
2023-10-14T08:24:19.151Z,1.40
2023-10-14T08:26:48.041Z,1.87
2023-10-14T08:29:15.201Z,1.40
2023-10-14T08:31:44.133Z,1.80
2023-10-14T08:34:11.547Z,1.40
2023-10-14T08:36:44.038Z,1.93
2023-10-14T08:39:10.846Z,1.63
2023-10-14T08:41:40.148Z,1.47
2023-10-14T08:44:11.801Z,1.30
2023-10-14T08:46:41.775Z,2.03
2023-10-14T08:49:13.450Z,1.60
2023-10-14T08:51:53.831Z,1.40
2023-10-14T08:54:26.536Z,1.53
2023-10-14T08:56:54.196Z,1.50
2023-10-14T08:59:21.753Z,1.27
2023-10-14T09:01:57.429Z,1.37
2023-10-14T09:04:29.745Z,1.40
2023-10-14T09:07:15.260Z,1.37
2023-10-14T09:09:42.103Z,1.33
2023-10-14T09:12:12.167Z,1.30
2023-10-14T09:14:40.595Z,1.40
2023-10-14T09:17:12.638Z,1.50
2023-10-14T09:19:49.454Z,1.23
2023-10-14T09:22:34.991Z,1.33
2023-10-14T09:25:02.011Z,1.90
2023-10-14T09:27:31.631Z,0.90
2023-10-14T09:29:59.998Z,0.90
2023-10-14T09:32:28.184Z,0.80
2023-10-14T09:34:56.541Z,0.93
2023-10-14T09:37:23.998Z,0.87
2023-10-14T09:40:01.394Z,0.80
2023-10-14T09:42:31.221Z,0.80
2023-10-14T09:45:11.087Z,0.80
2023-10-14T09:47:46.580Z,0.70
2023-10-14T09:50:15.794Z,1.00
2023-10-14T09:52:44.111Z,0.80
2023-10-14T09:55:15.409Z,0.80
2023-10-14T09:57:46.133Z,1.00
2023-10-14T10:00:14.175Z,0.77
2023-10-14T10:02:44.886Z,1.03
2023-10-14T10:05:20.584Z,1.07
2023-10-14T10:08:21.367Z,0.80
2023-10-14T10:10:50.295Z,0.80
2023-10-14T10:13:18.649Z,0.80
2023-10-14T10:15:47.240Z,0.90
2023-10-14T10:18:16.704Z,0.97
2023-10-14T10:20:58.254Z,0.90
2023-10-14T10:23:28.218Z,0.80
2023-10-14T10:25:56.910Z,0.90
2023-10-14T10:28:29.819Z,0.90
2023-10-14T10:31:05.349Z,1.10
2023-10-14T10:33:58.238Z,0.90
2023-10-14T10:36:30.594Z,0.80
2023-10-14T10:39:26.412Z,1.00
2023-10-14T10:41:55.012Z,0.93
2023-10-14T10:44:21.876Z,0.90
2023-10-14T10:46:53.684Z,1.10
2023-10-14T10:49:49.511Z,0.90
2023-10-14T10:52:16.740Z,1.03
2023-10-14T10:54:45.462Z,1.00
2023-10-14T10:57:15.401Z,0.80
2023-10-14T10:59:42.817Z,0.80
2023-10-14T11:02:11.554Z,0.70
2023-10-14T11:04:40.999Z,0.90
2023-10-14T11:07:12.717Z,0.80
2023-10-14T11:09:42.725Z,0.80
2023-10-14T11:12:12.070Z,0.80
2023-10-14T11:14:39.850Z,0.70
2023-10-14T11:17:08.037Z,0.80
2023-10-14T11:19:35.773Z,1.00
2023-10-14T11:22:05.486Z,1.00
2023-10-14T11:24:33.105Z,0.83
2023-10-14T11:27:02.846Z,1.00
2023-10-14T11:29:35.050Z,0.90
2023-10-14T11:32:03.563Z,1.37
2023-10-14T11:34:37.126Z,1.00
2023-10-14T11:37:08.007Z,0.80
2023-10-14T11:39:37.523Z,0.90
2023-10-14T11:42:04.624Z,0.80
2023-10-14T11:44:31.678Z,0.80
2023-10-14T11:47:01.442Z,0.87
2023-10-14T11:49:32.063Z,0.90
2023-10-14T11:52:01.615Z,0.80
2023-10-14T11:54:28.588Z,0.90
2023-10-14T11:56:55.378Z,0.80
2023-10-14T11:59:22.366Z,1.00
2023-10-14T12:01:49.378Z,0.90
2023-10-14T12:04:16.833Z,0.80
2023-10-14T12:06:44.330Z,0.90
2023-10-14T12:09:11.969Z,1.00
2023-10-14T12:11:45.946Z,0.80
2023-10-14T12:14:16.236Z,0.90
2023-10-14T12:16:44.021Z,1.10
2023-10-14T12:19:15.442Z,0.97
2023-10-14T12:21:45.246Z,0.90
2023-10-14T12:24:12.078Z,0.90
2023-10-14T12:26:48.004Z,0.90
2023-10-14T12:29:14.963Z,0.80
2023-10-14T12:31:46.341Z,0.90
2023-10-14T12:34:15.310Z,1.07
2023-10-14T12:36:42.848Z,0.90
2023-10-14T12:39:20.749Z,0.90
2023-10-14T12:41:54.113Z,1.73
2023-10-14T12:44:21.154Z,1.00
2023-10-14T12:46:49.481Z,1.00
2023-10-14T12:49:20.081Z,1.00
2023-10-14T12:51:47.775Z,0.90
2023-10-14T12:54:18.562Z,0.80
2023-10-14T12:56:51.549Z,1.00
2023-10-14T12:59:19.217Z,0.80
2023-10-14T13:01:47.675Z,1.00
2023-10-14T13:04:18.109Z,0.90
2023-10-14T13:06:48.070Z,1.30
2023-10-14T13:09:15.273Z,1.07
2023-10-14T13:11:45.264Z,1.10
2023-10-14T13:14:30.036Z,1.10
2023-10-14T13:17:00.613Z,0.97
2023-10-14T13:19:34.227Z,1.40
2023-10-14T13:22:04.062Z,1.57
2023-10-14T13:24:32.584Z,1.20
2023-10-14T13:27:00.533Z,1.40
2023-10-14T13:29:27.362Z,1.10
2023-10-14T13:31:54.322Z,1.27
2023-10-14T13:34:21.676Z,1.20
2023-10-14T13:36:57.964Z,1.20
2023-10-14T13:39:26.306Z,1.20
2023-10-14T13:41:55.065Z,1.40
2023-10-14T13:44:21.838Z,1.30
2023-10-14T13:46:48.807Z,1.00
2023-10-14T13:49:24.794Z,1.27
2023-10-14T13:51:55.193Z,1.13
2023-10-14T13:54:22.632Z,1.40
2023-10-14T13:56:49.639Z,1.10
2023-10-14T13:59:17.559Z,1.03
2023-10-14T14:01:44.440Z,1.30
2023-10-14T14:04:18.036Z,1.20
2023-10-14T14:06:45.197Z,1.30
2023-10-14T14:09:12.103Z,1.27
2023-10-14T14:11:38.936Z,1.40
2023-10-14T14:14:05.701Z,1.30
2023-10-14T14:16:32.576Z,1.47
2023-10-14T14:19:01.260Z,1.33
2023-10-14T14:21:28.170Z,1.37
2023-10-14T14:23:55.807Z,1.30
2023-10-14T14:26:22.725Z,1.73
2023-10-14T14:28:52.410Z,1.80
2023-10-14T14:31:19.229Z,1.70
2023-10-14T14:33:47.523Z,2.30
2023-10-14T14:36:14.429Z,1.80
2023-10-14T14:38:44.613Z,1.90
2023-10-14T14:41:19.338Z,1.87
2023-10-14T14:43:46.711Z,1.70
2023-10-14T14:46:13.671Z,1.60
2023-10-14T14:48:40.510Z,1.77
2023-10-14T14:51:10.986Z,2.00
2023-10-14T14:53:38.194Z,2.20
2023-10-14T14:56:11.009Z,2.70
2023-10-14T14:58:37.836Z,2.43
2023-10-14T15:01:17.530Z,1.97
2023-10-14T15:03:46.619Z,2.20
2023-10-14T15:06:13.494Z,2.20
2023-10-14T15:08:40.269Z,2.50
2023-10-14T15:11:07.078Z,2.50
2023-10-14T15:13:35.117Z,2.67
2023-10-14T15:16:02.856Z,2.00
2023-10-14T15:18:29.836Z,2.40
2023-10-14T15:20:57.177Z,1.77
2023-10-14T15:23:24.073Z,2.50
2023-10-14T15:25:50.848Z,2.30
2023-10-14T15:28:20.636Z,2.30
2023-10-14T15:30:48.103Z,2.20
2023-10-14T15:33:15.043Z,2.40
2023-10-14T15:35:42.213Z,2.43
2023-10-14T15:38:14.785Z,2.10
2023-10-14T15:40:52.803Z,2.37
2023-10-14T15:43:20.060Z,1.83
2023-10-14T15:45:47.826Z,2.30
2023-10-14T15:48:16.503Z,2.10
2023-10-14T15:50:46.447Z,2.10
2023-10-14T15:53:14.032Z,2.10
2023-10-14T15:55:42.826Z,1.93
2023-10-14T15:58:11.152Z,2.20
2023-10-14T16:00:40.526Z,2.10
2023-10-14T16:03:09.701Z,1.80
2023-10-14T16:05:40.614Z,2.53
2023-10-14T16:08:14.597Z,2.50
2023-10-14T16:10:45.471Z,2.30
2023-10-14T16:13:16.151Z,2.03
2023-10-14T16:15:46.378Z,2.60
2023-10-14T16:18:13.695Z,2.30
2023-10-14T16:20:41.221Z,2.30
2023-10-14T16:23:08.642Z,2.70
2023-10-14T16:25:36.464Z,2.87
2023-10-14T16:28:03.786Z,2.37
2023-10-14T16:30:31.579Z,2.23
2023-10-14T16:33:00.059Z,2.37
2023-10-14T16:35:32.993Z,3.03
2023-10-14T16:38:03.009Z,3.80
2023-10-14T16:40:29.984Z,3.03
2023-10-14T16:43:06.070Z,2.50
2023-10-14T16:45:36.940Z,2.80
2023-10-14T16:48:08.971Z,2.40
2023-10-14T16:50:38.885Z,2.73
2023-10-14T16:53:10.082Z,2.20
2023-10-14T16:55:38.934Z,2.33
2023-10-14T16:58:06.921Z,2.40
2023-10-14T17:00:35.068Z,2.60
2023-10-14T17:03:05.173Z,3.40
2023-10-14T17:05:33.696Z,3.97
2023-10-14T17:08:05.443Z,5.07
2023-10-14T17:10:34.012Z,3.80
2023-10-14T17:13:06.361Z,3.40
2023-10-14T17:15:34.206Z,3.30
2023-10-14T17:18:04.032Z,3.37
2023-10-14T17:20:34.356Z,3.93
2023-10-14T17:23:05.315Z,3.00
2023-10-14T17:25:34.652Z,3.07
2023-10-14T17:28:06.942Z,2.80
2023-10-14T17:30:34.080Z,3.20
2023-10-14T17:33:08.599Z,2.80
2023-10-14T17:35:36.894Z,2.77
2023-10-14T17:38:06.109Z,2.87
2023-10-14T17:40:39.438Z,2.57
2023-10-14T17:43:07.954Z,2.80
2023-10-14T17:45:35.913Z,2.33
2023-10-14T17:48:07.694Z,2.50
2023-10-14T17:50:36.715Z,2.20
2023-10-14T17:53:10.664Z,2.17
2023-10-14T17:55:38.463Z,2.10
2023-10-14T17:58:05.556Z,2.50
2023-10-14T18:00:32.998Z,2.40
2023-10-14T18:03:09.057Z,3.30
2023-10-14T18:05:49.009Z,2.10
2023-10-14T18:08:18.234Z,2.23
2023-10-14T18:10:46.177Z,3.07
2023-10-14T18:13:20.259Z,2.93
2023-10-14T18:15:47.551Z,2.77
2023-10-14T18:18:14.903Z,2.97
2023-10-14T18:20:42.546Z,2.83
2023-10-14T18:23:10.346Z,2.60
2023-10-14T18:25:45.572Z,2.30
2023-10-14T18:28:12.790Z,3.97
2023-10-14T18:30:42.814Z,4.03
2023-10-14T18:33:11.883Z,3.27
2023-10-14T18:35:42.410Z,3.50
2023-10-14T18:38:12.854Z,3.73
2023-10-14T18:40:42.749Z,3.57
2023-10-14T18:43:09.930Z,2.97
2023-10-14T18:45:37.292Z,3.53
2023-10-14T18:48:10.739Z,3.30
2023-10-14T18:50:44.553Z,2.97
2023-10-14T18:53:13.504Z,2.90
2023-10-14T18:55:51.593Z,3.10
2023-10-14T18:58:19.578Z,3.60
2023-10-14T19:00:48.387Z,3.60
2023-10-14T19:03:16.560Z,3.20
2023-10-14T19:05:43.705Z,3.37
2023-10-14T19:08:13.419Z,2.80
2023-10-14T19:10:48.333Z,2.97
2023-10-14T19:13:19.093Z,2.97
2023-10-14T19:15:57.645Z,2.80
2023-10-14T19:18:24.499Z,2.73
2023-10-14T19:20:51.363Z,2.50
2023-10-14T19:23:28.887Z,2.50
2023-10-14T19:25:58.610Z,2.90
2023-10-14T19:28:27.888Z,2.30
2023-10-14T19:31:03.472Z,2.60
2023-10-14T19:33:30.988Z,3.07
2023-10-14T19:36:04.845Z,2.47
2023-10-14T19:38:32.689Z,2.40
2023-10-14T19:41:05.962Z,3.70
2023-10-14T19:43:34.226Z,3.80
2023-10-14T19:46:09.989Z,4.60
2023-10-14T19:48:37.532Z,5.67
2023-10-14T19:51:16.239Z,6.00
2023-10-14T19:53:43.502Z,5.90
2023-10-14T19:56:12.222Z,5.07
2023-10-14T19:58:39.651Z,4.33
2023-10-14T20:01:11.821Z,4.17
2023-10-14T20:03:38.868Z,3.70
2023-10-14T20:06:06.184Z,5.70
2023-10-14T20:08:36.199Z,4.30
2023-10-14T20:11:03.477Z,3.87
2023-10-14T20:13:30.259Z,3.80
2023-10-14T20:15:58.655Z,4.77
2023-10-14T20:18:26.289Z,4.47
2023-10-14T20:20:53.128Z,3.63
2023-10-14T20:23:21.880Z,4.50
2023-10-14T20:25:49.766Z,4.47
2023-10-14T20:28:18.366Z,5.10
2023-10-14T20:30:50.196Z,3.97
2023-10-14T20:33:20.173Z,4.47
2023-10-14T20:35:47.289Z,4.43
2023-10-14T20:38:14.659Z,4.40
2023-10-14T20:40:45.200Z,4.23
2023-10-14T20:43:12.726Z,3.47
2023-10-14T20:45:41.754Z,3.20
2023-10-14T20:48:08.903Z,3.00
2023-10-14T20:50:38.656Z,2.93
2023-10-14T20:53:06.859Z,3.37
2023-10-14T20:55:35.567Z,3.03
2023-10-14T20:58:07.657Z,3.20
2023-10-14T21:00:37.755Z,3.77
2023-10-14T21:03:12.380Z,3.60
2023-10-14T21:05:47.840Z,4.17
2023-10-14T21:08:17.123Z,4.10
2023-10-14T21:10:51.549Z,3.60
2023-10-14T21:13:21.891Z,3.80
2023-10-14T21:16:02.241Z,3.00
2023-10-14T21:18:30.546Z,2.87
2023-10-14T21:20:57.453Z,3.00
2023-10-14T21:23:25.048Z,2.77
2023-10-14T21:26:00.869Z,2.90
2023-10-14T21:28:30.670Z,3.00
2023-10-14T21:30:57.862Z,2.70
2023-10-14T21:33:24.898Z,3.00
2023-10-14T21:35:51.744Z,2.63
2023-10-14T21:38:18.543Z,2.67
2023-10-14T21:40:50.319Z,3.77
2023-10-14T21:43:18.976Z,3.40
2023-10-14T21:45:48.491Z,3.10
2023-10-14T21:48:15.326Z,3.00
2023-10-14T21:50:42.087Z,3.03
2023-10-14T21:53:09.254Z,2.97
2023-10-14T21:55:38.257Z,2.90
2023-10-14T21:58:08.796Z,2.97
2023-10-14T22:00:38.077Z,2.93
2023-10-14T22:03:13.563Z,3.10
2023-10-14T22:05:44.621Z,2.93
2023-10-14T22:08:13.105Z,2.93
2023-10-14T22:10:42.741Z,2.83
2023-10-14T22:13:14.555Z,2.60
2023-10-14T22:15:41.842Z,2.87
2023-10-14T22:18:11.538Z,2.67
2023-10-14T22:20:40.720Z,2.87
2023-10-14T22:23:09.609Z,2.90
2023-10-14T22:25:37.648Z,3.53
2023-10-14T22:28:12.813Z,3.80
2023-10-14T22:30:41.102Z,3.40
2023-10-14T22:33:11.660Z,3.53
2023-10-14T22:35:38.682Z,4.17
2023-10-14T22:38:10.932Z,3.10
2023-10-14T22:40:38.166Z,3.33
2023-10-14T22:43:05.147Z,3.20
2023-10-14T22:45:34.852Z,3.77
2023-10-14T22:48:02.432Z,3.67
2023-10-14T22:50:30.040Z,3.60
2023-10-14T22:52:57.614Z,3.50
2023-10-14T22:55:26.948Z,3.53
2023-10-14T22:57:57.704Z,2.83
2023-10-14T23:00:26.965Z,3.83
2023-10-14T23:02:56.689Z,2.90
2023-10-14T23:05:31.824Z,3.50
2023-10-14T23:08:01.756Z,4.00
2023-10-14T23:10:32.479Z,3.57
2023-10-14T23:13:00.821Z,3.60
2023-10-14T23:15:29.522Z,3.80
2023-10-14T23:17:57.978Z,3.33
2023-10-14T23:20:27.358Z,3.27
2023-10-14T23:22:56.163Z,3.17
2023-10-14T23:25:27.058Z,2.87
2023-10-14T23:27:55.956Z,2.93
2023-10-14T23:30:24.301Z,2.90
2023-10-14T23:32:55.882Z,2.73
2023-10-14T23:35:24.873Z,2.90
2023-10-14T23:37:59.159Z,2.93
2023-10-14T23:40:30.391Z,3.20
2023-10-14T23:42:59.429Z,3.30
2023-10-14T23:45:33.758Z,2.90
2023-10-14T23:48:04.902Z,3.17
2023-10-14T23:50:39.044Z,2.40
2023-10-14T23:53:09.553Z,2.80
2023-10-14T23:55:36.417Z,2.70
2023-10-14T23:58:04.127Z,1.90
